sensor_id;sensor_type;location;lat;lon;timestamp;P1;durP1;ratioP1;P2;durP2;ratioP2
37449;SDS011;23309;52.582;13.406;2023-09-18T00:00:44;7.20;;;6.10;;
37449;SDS011;23309;52.582;13.406;2023-09-18T00:03:10;8.60;;;7.03;;
37449;SDS011;23309;52.582;13.406;2023-09-18T00:05:35;9.90;;;6.20;;
37449;SDS011;23309;52.582;13.406;2023-09-18T00:08:01;7.37;;;6.20;;
37449;SDS011;23309;52.582;13.406;2023-09-18T00:10:30;7.33;;;6.53;;
37449;SDS011;23309;52.582;13.406;2023-09-18T00:12:56;7.10;;;6.10;;
37449;SDS011;23309;52.582;13.406;2023-09-18T19:34:58;6.43;;;2.97;;
37449;SDS011;23309;52.582;13.406;2023-09-18T19:37:24;5.93;;;3.00;;
37449;SDS011;23309;52.582;13.406;2023-09-18T19:39:50;7.47;;;2.90;;
37449;SDS011;23309;52.582;13.406;2023-09-18T19:42:15;5.43;;;2.80;;
37449;SDS011;23309;52.582;13.406;2023-09-18T19:44:41;6.53;;;3.07;;
37449;SDS011;23309;52.582;13.406;2023-09-18T19:47:07;4.57;;;2.70;;
37449;SDS011;23309;52.582;13.406;2023-09-18T19:49:33;5.83;;;3.20;;
37449;SDS011;23309;52.582;13.406;2023-09-18T19:51:59;4.70;;;2.90;;
37449;SDS011;23309;52.582;13.406;2023-09-18T19:54:25;8.20;;;3.10;;
37449;SDS011;23309;52.582;13.406;2023-09-18T19:56:50;9.10;;;2.70;;
37449;SDS011;23309;52.582;13.406;2023-09-18T19:59:16;6.87;;;3.27;;
37449;SDS011;23309;52.582;13.406;2023-09-18T20:01:43;8.17;;;3.67;;
37449;SDS011;23309;52.582;13.406;2023-09-18T20:04:10;4.37;;;2.57;;
37449;SDS011;23309;52.582;13.406;2023-09-18T20:06:36;6.53;;;3.27;;
37449;SDS011;23309;52.582;13.406;2023-09-18T20:09:02;6.00;;;3.07;;
37449;SDS011;23309;52.582;13.406;2023-09-18T20:11:30;5.83;;;2.83;;
37449;SDS011;23309;52.582;13.406;2023-09-18T20:13:57;6.37;;;2.93;;
37449;SDS011;23309;52.582;13.406;2023-09-18T20:16:23;8.10;;;3.20;;
37449;SDS011;23309;52.582;13.406;2023-09-18T20:18:49;4.70;;;2.40;;
37449;SDS011;23309;52.582;13.406;2023-09-18T20:21:15;5.53;;;3.17;;
37449;SDS011;23309;52.582;13.406;2023-09-18T20:23:41;8.17;;;2.80;;
37449;SDS011;23309;52.582;13.406;2023-09-18T20:26:07;6.23;;;2.80;;
37449;SDS011;23309;52.582;13.406;2023-09-18T20:28:32;8.13;;;2.97;;
37449;SDS011;23309;52.582;13.406;2023-09-18T20:30:59;6.10;;;3.10;;
37449;SDS011;23309;52.582;13.406;2023-09-18T20:33:25;11.17;;;3.70;;
37449;SDS011;23309;52.582;13.406;2023-09-18T20:35:59;9.47;;;3.00;;
37449;SDS011;23309;52.582;13.406;2023-09-18T20:38:26;8.57;;;3.00;;
37449;SDS011;23309;52.582;13.406;2023-09-18T20:40:52;7.20;;;2.97;;
37449;SDS011;23309;52.582;13.406;2023-09-18T20:43:18;5.83;;;3.13;;
37449;SDS011;23309;52.582;13.406;2023-09-18T20:45:50;8.23;;;3.40;;
37449;SDS011;23309;52.582;13.406;2023-09-18T20:48:16;4.63;;;2.77;;
37449;SDS011;23309;52.582;13.406;2023-09-18T20:50:41;6.33;;;3.63;;
37449;SDS011;23309;52.582;13.406;2023-09-18T20:53:07;5.87;;;2.87;;
37449;SDS011;23309;52.582;13.406;2023-09-18T20:55:34;8.53;;;2.93;;
37449;SDS011;23309;52.582;13.406;2023-09-18T20:57:59;7.40;;;2.73;;
37449;SDS011;23309;52.582;13.406;2023-09-18T21:00:25;5.70;;;2.90;;
37449;SDS011;23309;52.582;13.406;2023-09-18T21:02:51;4.23;;;2.03;;
37449;SDS011;23309;52.582;13.406;2023-09-18T21:05:16;4.80;;;2.70;;
37449;SDS011;23309;52.582;13.406;2023-09-18T21:07:43;6.30;;;2.80;;
37449;SDS011;23309;52.582;13.406;2023-09-18T21:10:09;7.70;;;2.70;;
37449;SDS011;23309;52.582;13.406;2023-09-18T21:12:35;7.80;;;2.67;;
37449;SDS011;23309;52.582;13.406;2023-09-18T21:15:01;4.67;;;2.60;;
37449;SDS011;23309;52.582;13.406;2023-09-18T21:17:27;9.20;;;2.90;;
37449;SDS011;23309;52.582;13.406;2023-09-18T21:19:53;5.67;;;2.50;;
37449;SDS011;23309;52.582;13.406;2023-09-18T21:22:18;3.97;;;2.47;;
37449;SDS011;23309;52.582;13.406;2023-09-18T21:24:44;4.23;;;2.53;;
37449;SDS011;23309;52.582;13.406;2023-09-18T21:27:12;6.60;;;3.00;;
37449;SDS011;23309;52.582;13.406;2023-09-18T21:29:38;5.60;;;2.80;;
37449;SDS011;23309;52.582;13.406;2023-09-18T21:32:03;4.63;;;2.57;;
37449;SDS011;23309;52.582;13.406;2023-09-18T21:34:29;5.43;;;2.47;;
37449;SDS011;23309;52.582;13.406;2023-09-18T21:36:55;5.40;;;2.10;;
37449;SDS011;23309;52.582;13.406;2023-09-18T21:39:21;5.07;;;2.60;;
37449;SDS011;23309;52.582;13.406;2023-09-18T21:41:46;4.10;;;2.20;;
37449;SDS011;23309;52.582;13.406;2023-09-18T21:44:12;7.17;;;2.47;;
37449;SDS011;23309;52.582;13.406;2023-09-18T21:46:39;4.50;;;2.20;;
37449;SDS011;23309;52.582;13.406;2023-09-18T21:49:05;4.23;;;2.47;;
37449;SDS011;23309;52.582;13.406;2023-09-18T21:51:31;6.83;;;2.60;;
37449;SDS011;23309;52.582;13.406;2023-09-18T21:54:03;5.43;;;2.70;;
37449;SDS011;23309;52.582;13.406;2023-09-18T21:56:31;5.83;;;2.60;;
37449;SDS011;23309;52.582;13.406;2023-09-18T21:58:57;4.80;;;2.30;;
37449;SDS011;23309;52.582;13.406;2023-09-18T22:01:23;7.53;;;2.00;;
37449;SDS011;23309;52.582;13.406;2023-09-18T22:03:49;4.40;;;2.50;;
37449;SDS011;23309;52.582;13.406;2023-09-18T22:06:16;6.87;;;2.30;;
37449;SDS011;23309;52.582;13.406;2023-09-18T22:08:42;6.60;;;2.20;;
37449;SDS011;23309;52.582;13.406;2023-09-18T22:11:07;5.97;;;2.30;;
37449;SDS011;23309;52.582;13.406;2023-09-18T22:13:33;5.97;;;2.00;;
37449;SDS011;23309;52.582;13.406;2023-09-18T22:15:59;9.13;;;2.80;;
37449;SDS011;23309;52.582;13.406;2023-09-18T22:18:25;5.13;;;2.40;;
37449;SDS011;23309;52.582;13.406;2023-09-18T22:20:51;8.33;;;2.70;;
37449;SDS011;23309;52.582;13.406;2023-09-18T22:23:16;6.80;;;2.20;;
37449;SDS011;23309;52.582;13.406;2023-09-18T22:25:43;6.37;;;2.37;;
37449;SDS011;23309;52.582;13.406;2023-09-18T22:28:08;6.07;;;2.23;;
37449;SDS011;23309;52.582;13.406;2023-09-18T22:30:34;5.07;;;2.40;;
37449;SDS011;23309;52.582;13.406;2023-09-18T22:33:01;7.10;;;2.30;;
37449;SDS011;23309;52.582;13.406;2023-09-18T22:35:27;5.60;;;2.13;;
37449;SDS011;23309;52.582;13.406;2023-09-18T22:37:56;8.40;;;2.30;;
37449;SDS011;23309;52.582;13.406;2023-09-18T22:55:14;5.30;;;2.20;;
37449;SDS011;23309;52.582;13.406;2023-09-18T22:57:43;4.43;;;2.50;;
37449;SDS011;23309;52.582;13.406;2023-09-18T23:00:16;5.97;;;2.50;;
37449;SDS011;23309;52.582;13.406;2023-09-18T23:02:43;7.80;;;2.60;;
37449;SDS011;23309;52.582;13.406;2023-09-18T23:05:13;6.03;;;2.33;;
37449;SDS011;23309;52.582;13.406;2023-09-18T23:07:40;7.33;;;2.40;;
37449;SDS011;23309;52.582;13.406;2023-09-18T23:10:09;6.13;;;2.50;;
37449;SDS011;23309;52.582;13.406;2023-09-18T23:12:35;3.90;;;2.10;;
37449;SDS011;23309;52.582;13.406;2023-09-18T23:15:03;4.63;;;2.10;;
37449;SDS011;23309;52.582;13.406;2023-09-18T23:17:32;5.60;;;2.37;;
37449;SDS011;23309;52.582;13.406;2023-09-18T23:19:59;5.13;;;2.20;;
37449;SDS011;23309;52.582;13.406;2023-09-18T23:22:32;4.50;;;2.40;;
37449;SDS011;23309;52.582;13.406;2023-09-18T23:24:59;8.33;;;2.73;;
37449;SDS011;23309;52.582;13.406;2023-09-18T23:27:24;4.47;;;2.00;;
37449;SDS011;23309;52.582;13.406;2023-09-18T23:29:53;4.80;;;2.10;;
37449;SDS011;23309;52.582;13.406;2023-09-18T23:32:19;5.77;;;2.43;;
37449;SDS011;23309;52.582;13.406;2023-09-18T23:34:48;6.00;;;1.90;;
37449;SDS011;23309;52.582;13.406;2023-09-18T23:37:17;11.47;;;2.40;;
37449;SDS011;23309;52.582;13.406;2023-09-18T23:39:42;4.03;;;2.20;;
37449;SDS011;23309;52.582;13.406;2023-09-18T23:42:09;5.60;;;2.47;;
37449;SDS011;23309;52.582;13.406;2023-09-18T23:44:34;5.93;;;2.40;;
37449;SDS011;23309;52.582;13.406;2023-09-18T23:47:02;5.20;;;2.10;;
37449;SDS011;23309;52.582;13.406;2023-09-18T23:49:28;6.10;;;2.00;;
37449;SDS011;23309;52.582;13.406;2023-09-18T23:51:56;9.73;;;2.67;;
37449;SDS011;23309;52.582;13.406;2023-09-18T23:54:22;3.87;;;1.93;;
37449;SDS011;23309;52.582;13.406;2023-09-18T23:56:48;5.80;;;2.47;;
37449;SDS011;23309;52.582;13.406;2023-09-18T23:59:16;6.00;;;2.43;;
